Time;durP1;ratioP1;P1;durP2;ratioP2;P2;SDS_P1;SDS_P2;PMS_P1;PMS_P2;Temp;Humidity;BMP_temperature;BMP_pressure;BME280_temperature;BME280_humidity;BME280_pressure;Samples;Min_cycle;Max_cycle;Signal;HPM_P1;HPM_P2
2023/05/23 00:01:38;;;;;;;;;;;17.20;99.90;;;;;;8377133;28;20276;-74
2023/05/23 00:05:40;;;;;;;;;;;17.20;99.90;;;;;;8383715;28;19929;-73
2023/05/23 00:09:42;;;;;;;;;;;17.10;99.90;;;;;;8370406;28;19928;-73
2023/05/23 00:13:44;;;;;;;;;;;17.10;99.90;;;;;;8367179;28;19925;-74
2023/05/23 00:17:46;;;;;;;;;;;17.10;99.90;;;;;;8377604;28;19924;-72
2023/05/23 00:21:48;;;;;;;;;;;17.00;99.90;;;;;;8385516;28;19928;-73
2023/05/23 00:25:53;;;;;;;;;;;16.90;99.90;;;;;;8393428;28;19924;-74
2023/05/23 00:29:54;;;;;;;;;;;16.80;99.90;;;;;;8370017;28;20015;-73
2023/05/23 00:33:56;;;;;;;;;;;16.80;99.90;;;;;;8363166;28;19939;-72
2023/05/23 00:37:58;;;;;;;;;;;16.80;99.90;;;;;;8389051;28;19944;-73
2023/05/23 00:42:02;;;;;;;;;;;16.80;99.90;;;;;;8383305;28;20485;-73
2023/05/23 00:46:04;;;;;;;;;;;16.80;99.90;;;;;;8385249;28;19925;-73
2023/05/23 00:50:08;;;;;;;;;;;16.80;99.90;;;;;;8389249;28;19931;-73
2023/05/23 00:54:10;;;;;;;;;;;16.80;99.90;;;;;;8387733;28;19924;-73
2023/05/23 00:58:13;;;;;;;;;;;16.70;99.90;;;;;;8386040;28;19935;-73
2023/05/23 01:02:15;;;;;;;;;;;16.70;99.90;;;;;;8380209;28;19969;-73
2023/05/23 01:06:17;;;;;;;;;;;16.70;99.90;;;;;;8381757;28;19929;-73
2023/05/23 01:10:20;;;;;;;;;;;16.60;99.90;;;;;;8383582;28;19928;-73
2023/05/23 01:14:31;;;;;;;;;;;16.50;99.90;;;;;;8370044;28;19928;-73
2023/05/23 01:18:40;;;;;;;;;;;16.40;99.90;;;;;;8389423;28;19998;-72
2023/05/23 01:22:51;;;;;;;;;;;16.30;99.90;;;;;;8395238;28;19932;-73
2023/05/23 01:27:21;;;;;;;;;;;16.30;99.90;;;;;;8383223;28;19925;-73
2023/05/23 01:31:23;;;;;;;;;;;16.30;99.90;;;;;;8377073;28;19951;-73
2023/05/23 01:35:26;;;;;;;;;;;16.30;99.90;;;;;;8364651;28;19930;-72
2023/05/23 01:39:27;;;;;;;;;;;16.20;99.90;;;;;;8364341;28;19963;-72
2023/05/23 01:43:29;;;;;;;;;;;16.20;99.90;;;;;;8394745;28;20248;-72
2023/05/23 01:47:31;;;;;;;;;;;16.10;99.90;;;;;;8385678;28;19929;-73
2023/05/23 01:51:33;;;;;;;;;;;16.10;99.90;;;;;;8386609;28;20384;-73
2023/05/23 01:55:35;;;;;;;;;;;15.90;99.90;;;;;;8391459;28;19970;-73
2023/05/23 01:59:37;;;;;;;;;;;15.90;99.90;;;;;;8391615;28;19931;-73
2023/05/23 02:03:39;;;;;;;;;;;15.80;99.90;;;;;;8383827;28;20379;-72
2023/05/23 02:07:41;;;;;;;;;;;15.70;99.90;;;;;;8388004;28;19925;-72
2023/05/23 02:11:43;;;;;;;;;;;15.70;99.90;;;;;;8403163;28;19928;-73
2023/05/23 02:15:44;;;;;;;;;;;15.70;99.90;;;;;;8407838;28;19924;-73
2023/05/23 02:19:47;;;;;;;;;;;15.70;99.90;;;;;;8397553;28;20372;-72
2023/05/23 02:23:48;;;;;;;;;;;15.70;99.90;;;;;;8392078;28;19924;-73
2023/05/23 02:27:50;;;;;;;;;;;15.80;99.90;;;;;;8390970;28;19946;-72
2023/05/23 02:31:52;;;;;;;;;;;15.80;99.90;;;;;;8392493;28;19939;-73
2023/05/23 02:35:54;;;;;;;;;;;15.80;99.90;;;;;;8372437;28;19925;-73
2023/05/23 02:39:55;;;;;;;;;;;15.80;99.90;;;;;;8385284;28;19970;-73
2023/05/23 02:43:57;;;;;;;;;;;15.80;99.90;;;;;;8384601;28;19925;-73
2023/05/23 02:47:59;;;;;;;;;;;15.80;99.90;;;;;;8392314;28;19928;-73
2023/05/23 02:52:01;;;;;;;;;;;15.80;99.90;;;;;;8391948;28;20701;-74
2023/05/23 02:56:02;;;;;;;;;;;15.80;99.90;;;;;;8385016;28;19947;-72
2023/05/23 03:00:05;;;;;;;;;;;15.80;99.90;;;;;;8391416;28;19932;-72
2023/05/23 03:04:06;;;;;;;;;;;15.70;99.90;;;;;;8382715;28;19924;-72
2023/05/23 03:08:08;;;;;;;;;;;15.70;99.90;;;;;;8387019;28;19928;-73
2023/05/23 03:12:10;;;;;;;;;;;15.80;99.90;;;;;;8387859;28;19929;-73
2023/05/23 03:16:11;;;;;;;;;;;15.80;99.90;;;;;;8371524;28;20323;-73
2023/05/23 03:20:13;;;;;;;;;;;15.80;99.90;;;;;;8375266;28;19993;-72
2023/05/23 03:24:15;;;;;;;;;;;15.80;99.90;;;;;;8371080;28;20283;-72
2023/05/23 03:28:17;;;;;;;;;;;15.80;99.90;;;;;;8374894;28;19971;-73
2023/05/23 03:32:18;;;;;;;;;;;15.70;99.90;;;;;;8388247;28;20335;-72
2023/05/23 03:36:24;;;;;;;;;;;15.60;99.90;;;;;;8375094;28;19929;-72
2023/05/23 03:40:26;;;;;;;;;;;15.60;99.90;;;;;;8374544;28;19928;-72
2023/05/23 03:44:28;;;;;;;;;;;15.60;99.90;;;;;;8385146;28;20434;-72
2023/05/23 03:48:29;;;;;;;;;;;15.60;99.90;;;;;;8388891;28;20403;-72
2023/05/23 03:52:31;;;;;;;;;;;15.50;99.90;;;;;;8372647;28;19924;-72
2023/05/23 03:56:33;;;;;;;;;;;15.30;99.90;;;;;;8377342;28;19932;-71
2023/05/23 04:00:34;;;;;;;;;;;15.30;99.90;;;;;;8370838;28;20388;-72
2023/05/23 04:04:38;;;;;;;;;;;15.10;99.90;;;;;;8385623;28;19978;-71
2023/05/23 04:08:40;;;;;;;;;;;15.00;99.90;;;;;;8389032;28;19973;-72
2023/05/23 04:12:42;;;;;;;;;;;15.00;99.90;;;;;;8385451;28;19939;-72
2023/05/23 04:16:44;;;;;;;;;;;15.00;99.90;;;;;;8389141;28;19977;-73
2023/05/23 04:20:46;;;;;;;;;;;15.00;99.90;;;;;;8387033;28;19924;-72
2023/05/23 04:24:47;;;;;;;;;;;15.00;99.90;;;;;;8389216;28;19932;-71
2023/05/23 04:28:53;;;;;;;;;;;15.00;99.90;;;;;;8383461;28;19924;-72
2023/05/23 04:32:56;;;;;;;;;;;15.00;99.90;;;;;;8390747;28;19928;-71
2023/05/23 04:37:01;;;;;;;;;;;14.90;99.90;;;;;;8387963;28;19976;-73
2023/05/23 04:41:04;;;;;;;;;;;14.90;99.90;;;;;;8380102;28;19924;-72
2023/05/23 04:45:07;;;;;;;;;;;14.90;99.90;;;;;;8363234;28;19924;-71
2023/05/23 04:49:08;;;;;;;;;;;14.80;99.90;;;;;;8381094;28;19925;-72
2023/05/23 04:53:10;;;;;;;;;;;14.80;99.90;;;;;;8374651;28;20225;-72
2023/05/23 04:57:12;;;;;;;;;;;14.80;99.90;;;;;;8359742;28;19925;-72
2023/05/23 05:01:14;;;;;;;;;;;14.80;99.90;;;;;;8377776;28;20008;-72
2023/05/23 05:05:16;;;;;;;;;;;14.80;99.90;;;;;;8368050;28;19932;-72
2023/05/23 05:09:18;;;;;;;;;;;14.90;99.90;;;;;;8384425;28;19924;-72
2023/05/23 05:13:20;;;;;;;;;;;14.90;99.90;;;;;;8384245;28;19951;-72
2023/05/23 05:17:21;;;;;;;;;;;14.90;99.90;;;;;;8364904;28;19994;-72
2023/05/23 05:21:23;;;;;;;;;;;14.90;99.90;;;;;;8394132;28;19932;-72
2023/05/23 05:25:26;;;;;;;;;;;14.80;99.90;;;;;;8391605;28;20376;-72
2023/05/23 05:29:27;;;;;;;;;;;14.70;99.90;;;;;;8372267;28;19974;-72
2023/05/23 05:33:34;;;;;;;;;;;14.60;99.90;;;;;;8378334;28;20286;-72
2023/05/23 05:37:36;;;;;;;;;;;14.60;99.90;;;;;;8388764;28;19932;-71
2023/05/23 05:41:38;;;;;;;;;;;14.60;99.90;;;;;;8389916;28;20292;-71
2023/05/23 05:45:39;;;;;;;;;;;14.60;99.90;;;;;;8391838;28;20347;-72
2023/05/23 05:49:41;;;;;;;;;;;14.50;99.90;;;;;;8394509;28;20437;-72
2023/05/23 05:53:43;;;;;;;;;;;14.50;99.90;;;;;;8394486;28;19933;-72
2023/05/23 05:57:44;;;;;;;;;;;14.50;99.90;;;;;;8394407;28;20267;-72
2023/05/23 06:01:46;;;;;;;;;;;14.50;99.90;;;;;;8395941;28;19932;-72
2023/05/23 06:05:48;;;;;;;;;;;14.50;99.90;;;;;;8381572;28;19924;-72
2023/05/23 06:09:50;;;;;;;;;;;14.50;99.90;;;;;;8387576;28;19924;-72
2023/05/23 06:13:51;;;;;;;;;;;14.50;99.90;;;;;;8392527;28;19931;-71
2023/05/23 06:17:53;;;;;;;;;;;14.50;99.90;;;;;;8406469;28;19928;-72
2023/05/23 06:21:55;;;;;;;;;;;14.50;99.90;;;;;;8392317;28;20273;-72
2023/05/23 06:25:57;;;;;;;;;;;14.40;99.90;;;;;;8376801;28;19925;-72
2023/05/23 06:29:59;;;;;;;;;;;14.40;99.90;;;;;;8397171;28;19924;-72
2023/05/23 06:34:01;;;;;;;;;;;14.30;99.90;;;;;;8389859;28;19925;-72
2023/05/23 06:38:02;;;;;;;;;;;14.30;99.90;;;;;;8394497;28;19924;-72
2023/05/23 06:42:04;;;;;;;;;;;14.40;99.90;;;;;;8393133;28;19937;-72
2023/05/23 06:46:06;;;;;;;;;;;14.40;99.90;;;;;;8374032;28;19925;-71
2023/05/23 06:50:08;;;;;;;;;;;14.40;99.90;;;;;;8383774;28;20288;-72
2023/05/23 06:54:10;;;;;;;;;;;14.40;99.90;;;;;;8374085;28;19925;-72
2023/05/23 06:58:11;;;;;;;;;;;14.50;99.90;;;;;;8388702;28;19928;-72
2023/05/23 07:02:13;;;;;;;;;;;14.50;99.90;;;;;;8387531;28;20311;-72
2023/05/23 07:06:15;;;;;;;;;;;14.50;99.90;;;;;;8386390;28;19951;-72
2023/05/23 07:10:16;;;;;;;;;;;14.50;99.90;;;;;;8392607;28;19925;-72
2023/05/23 07:14:19;;;;;;;;;;;14.50;99.90;;;;;;8390088;28;19948;-72
2023/05/23 07:18:20;;;;;;;;;;;14.50;99.90;;;;;;8384149;28;19978;-72
2023/05/23 07:22:22;;;;;;;;;;;14.50;99.90;;;;;;8384536;28;20342;-72
2023/05/23 07:26:24;;;;;;;;;;;14.50;99.90;;;;;;8384211;28;19969;-72
2023/05/23 07:30:25;;;;;;;;;;;14.50;99.90;;;;;;8390639;28;19928;-72
2023/05/23 07:34:28;;;;;;;;;;;14.40;99.90;;;;;;8389530;28;20257;-72
2023/05/23 07:38:29;;;;;;;;;;;14.30;99.90;;;;;;8383845;28;19924;-72
2023/05/23 07:42:31;;;;;;;;;;;14.40;99.90;;;;;;8376572;28;19925;-72
2023/05/23 07:46:33;;;;;;;;;;;14.40;99.90;;;;;;8390705;28;19925;-71
2023/05/23 07:50:34;;;;;;;;;;;14.40;99.90;;;;;;8395723;28;19924;-72
2023/05/23 07:54:36;;;;;;;;;;;14.50;99.90;;;;;;8391805;28;19924;-72
2023/05/23 07:58:38;;;;;;;;;;;14.60;99.90;;;;;;8364708;28;19974;-72
2023/05/23 08:02:39;;;;;;;;;;;14.60;99.90;;;;;;8379601;28;19931;-72
2023/05/23 08:06:41;;;;;;;;;;;14.70;99.90;;;;;;8365771;28;19932;-72
2023/05/23 08:10:56;;;;;;;;;;;14.70;99.90;;;;;;8384743;28;20313;-72
2023/05/23 08:14:58;;;;;;;;;;;14.70;99.90;;;;;;8387848;28;19928;-72
2023/05/23 08:19:00;;;;;;;;;;;14.80;99.90;;;;;;8391368;28;20643;-71
2023/05/23 08:23:02;;;;;;;;;;;14.90;99.90;;;;;;8387972;28;20384;-71
2023/05/23 08:27:03;;;;;;;;;;;15.00;99.90;;;;;;8374187;28;20288;-72
2023/05/23 08:31:06;;;;;;;;;;;15.00;99.90;;;;;;8384655;28;20391;-72
2023/05/23 08:35:07;;;;;;;;;;;15.00;99.90;;;;;;8386780;28;19924;-71
2023/05/23 08:39:09;;;;;;;;;;;15.10;99.90;;;;;;8386793;28;20026;-71
2023/05/23 08:43:13;;;;;;;;;;;15.10;99.90;;;;;;8387454;28;19970;-71
2023/05/23 08:47:16;;;;;;;;;;;15.20;99.90;;;;;;8389164;28;19925;-71
2023/05/23 08:51:17;;;;;;;;;;;15.20;99.90;;;;;;8379341;28;19925;-71
2023/05/23 08:55:20;;;;;;;;;;;15.10;99.90;;;;;;8382877;28;19924;-71
2023/05/23 08:59:22;;;;;;;;;;;15.30;99.90;;;;;;8375993;28;20442;-71
2023/05/23 09:03:27;;;;;;;;;;;15.50;99.90;;;;;;8384796;28;20423;-71
2023/05/23 09:07:28;;;;;;;;;;;15.60;99.90;;;;;;8363636;28;20453;-71
2023/05/23 09:11:32;;;;;;;;;;;15.60;99.90;;;;;;8370002;28;19939;-71
2023/05/23 09:15:36;;;;;;;;;;;15.50;99.90;;;;;;8353511;28;19935;-71
2023/05/23 09:19:40;;;;;;;;;;;15.50;99.90;;;;;;8353688;28;19932;-71
2023/05/23 09:23:41;;;;;;;;;;;15.60;99.90;;;;;;8357133;28;19972;-72
2023/05/23 09:27:43;;;;;;;;;;;15.70;99.90;;;;;;8379840;28;19951;-71
2023/05/23 09:31:48;;;;;;;;;;;15.70;99.90;;;;;;8366103;28;19928;-72
2023/05/23 09:35:50;;;;;;;;;;;15.70;99.90;;;;;;8360234;28;20291;-70
2023/05/23 09:39:51;;;;;;;;;;;15.80;99.90;;;;;;8343803;28;19928;-71
2023/05/23 09:43:53;;;;;;;;;;;15.90;99.90;;;;;;8358898;28;19939;-71
2023/05/23 09:47:55;;;;;;;;;;;16.10;99.90;;;;;;8358129;28;20399;-71
2023/05/23 09:51:57;;;;;;;;;;;16.20;99.90;;;;;;8363621;28;20478;-71
2023/05/23 09:56:00;;;;;;;;;;;16.30;99.90;;;;;;8365763;28;19985;-71
2023/05/23 10:00:05;;;;;;;;;;;16.30;99.90;;;;;;8369668;28;19929;-71
2023/05/23 10:04:08;;;;;;;;;;;16.40;99.90;;;;;;8368563;28;19969;-71
2023/05/23 10:08:11;;;;;;;;;;;16.40;99.90;;;;;;8375956;28;19929;-71
2023/05/23 10:12:31;;;;;;;;;;;16.40;99.90;;;;;;8362679;28;19994;-71
2023/05/23 10:16:33;;;;;;;;;;;16.30;99.90;;;;;;8370987;28;19932;-70
2023/05/23 10:20:35;;;;;;;;;;;16.20;99.90;;;;;;8369185;28;19929;-70
2023/05/23 10:24:37;;;;;;;;;;;16.20;99.90;;;;;;8371023;28;19965;-71
2023/05/23 10:28:39;;;;;;;;;;;16.30;99.90;;;;;;8371260;28;20490;-71
2023/05/23 10:32:41;;;;;;;;;;;16.40;99.90;;;;;;8361843;28;19924;-71
2023/05/23 10:36:54;;;;;;;;;;;16.40;99.90;;;;;;8371617;28;19928;-71
2023/05/23 10:40:59;;;;;;;;;;;16.50;99.90;;;;;;8364640;28;19932;-71
2023/05/23 10:45:18;;;;;;;;;;;16.60;99.90;;;;;;8356247;28;19928;-71
2023/05/23 10:49:20;;;;;;;;;;;16.60;99.90;;;;;;8358095;28;20431;-71
2023/05/23 10:53:22;;;;;;;;;;;16.50;99.90;;;;;;8361575;28;19939;-71
2023/05/23 10:57:26;;;;;;;;;;;16.30;99.90;;;;;;8358142;28;19924;-70
2023/05/23 11:01:28;;;;;;;;;;;16.30;99.90;;;;;;8366873;28;19924;-71
2023/05/23 11:05:32;;;;;;;;;;;16.40;99.90;;;;;;8359499;28;19929;-71
2023/05/23 11:09:33;;;;;;;;;;;16.50;99.90;;;;;;8359856;28;19932;-71
2023/05/23 11:14:07;;;;;;;;;;;16.50;99.90;;;;;;8356982;28;19925;-71
2023/05/23 11:18:10;;;;;;;;;;;16.50;99.90;;;;;;8325815;28;19978;-72
2023/05/23 11:22:12;;;;;;;;;;;16.60;99.90;;;;;;8354125;28;19929;-71
2023/05/23 11:26:30;;;;;;;;;;;16.70;99.90;;;;;;8366594;28;19925;-71
2023/05/23 11:30:32;;;;;;;;;;;16.60;99.90;;;;;;8373098;28;19924;-71
2023/05/23 11:34:34;;;;;;;;;;;16.50;99.90;;;;;;8361799;28;19925;-71
2023/05/23 11:38:36;;;;;;;;;;;16.50;99.90;;;;;;8357400;28;19998;-71
2023/05/23 11:42:41;;;;;;;;;;;16.30;99.90;;;;;;8374401;28;19925;-72
2023/05/23 11:46:57;;;;;;;;;;;16.40;99.90;;;;;;8347517;28;19929;-71
2023/05/23 11:50:59;;;;;;;;;;;16.40;99.90;;;;;;8361847;28;20361;-71
2023/05/23 11:55:01;;;;;;;;;;;16.60;99.90;;;;;;8356439;28;20376;-71
2023/05/23 11:59:04;;;;;;;;;;;16.70;99.90;;;;;;8356118;28;19925;-71
2023/05/23 12:03:06;;;;;;;;;;;16.80;99.90;;;;;;8358327;28;19931;-71
2023/05/23 12:07:08;;;;;;;;;;;16.90;99.90;;;;;;8354314;28;19924;-71
2023/05/23 12:11:10;;;;;;;;;;;17.00;99.90;;;;;;8357058;28;19970;-71
2023/05/23 12:15:12;;;;;;;;;;;17.00;99.90;;;;;;8354398;28;20005;-71
2023/05/23 12:19:16;;;;;;;;;;;17.00;99.90;;;;;;8351818;28;20415;-71
2023/05/23 12:23:21;;;;;;;;;;;17.00;99.90;;;;;;8358069;28;20015;-71
2023/05/23 12:27:30;;;;;;;;;;;17.00;99.90;;;;;;8369132;28;19936;-71
2023/05/23 12:31:32;;;;;;;;;;;17.00;99.90;;;;;;8353346;28;19974;-71
2023/05/23 12:35:33;;;;;;;;;;;17.00;99.90;;;;;;8353174;28;20293;-71
2023/05/23 12:39:35;;;;;;;;;;;17.00;99.90;;;;;;8354104;28;19925;-71
2023/05/23 12:43:38;;;;;;;;;;;17.10;99.90;;;;;;8357406;28;19979;-71
2023/05/23 12:47:40;;;;;;;;;;;16.90;99.90;;;;;;8335758;28;20403;-71
2023/05/23 12:51:41;;;;;;;;;;;16.80;99.90;;;;;;8357903;28;19925;-71
2023/05/23 12:55:43;;;;;;;;;;;16.80;99.90;;;;;;8354866;28;19936;-71
2023/05/23 12:59:45;;;;;;;;;;;16.90;99.90;;;;;;8354286;28;20329;-71
2023/05/23 13:03:46;;;;;;;;;;;17.00;99.90;;;;;;8367469;28;19979;-71
2023/05/23 13:07:48;;;;;;;;;;;17.00;99.90;;;;;;8355561;28;19924;-71
2023/05/23 13:11:50;;;;;;;;;;;16.80;99.90;;;;;;8356156;28;19925;-71
2023/05/23 13:15:52;;;;;;;;;;;16.70;99.90;;;;;;8366486;28;19928;-70
2023/05/23 13:19:53;;;;;;;;;;;16.80;99.90;;;;;;8363771;28;19928;-71
2023/05/23 13:23:55;;;;;;;;;;;16.90;99.90;;;;;;8358286;28;19936;-71
2023/05/23 13:27:56;;;;;;;;;;;16.90;99.90;;;;;;8358786;28;20572;-72
2023/05/23 13:31:58;;;;;;;;;;;17.10;99.90;;;;;;8370404;28;19929;-70
2023/05/23 13:36:00;;;;;;;;;;;17.20;99.90;;;;;;8360806;28;19933;-70
2023/05/23 13:40:02;;;;;;;;;;;17.30;99.90;;;;;;8376945;28;19924;-70
2023/05/23 13:44:04;;;;;;;;;;;17.40;99.90;;;;;;8347684;28;19924;-71
2023/05/23 13:48:06;;;;;;;;;;;17.40;99.90;;;;;;8359888;28;19929;-71
2023/05/23 13:52:07;;;;;;;;;;;17.40;99.90;;;;;;8366274;28;19933;-70
2023/05/23 13:56:09;;;;;;;;;;;17.40;99.90;;;;;;8369803;28;19940;-71
2023/05/23 14:00:11;;;;;;;;;;;17.40;99.90;;;;;;8371874;28;19951;-72
2023/05/23 14:04:13;;;;;;;;;;;17.40;99.90;;;;;;8380564;28;19936;-71
2023/05/23 14:08:15;;;;;;;;;;;17.30;99.90;;;;;;8348215;28;19978;-71
2023/05/23 14:12:16;;;;;;;;;;;17.20;99.90;;;;;;8372089;28;19933;-71
2023/05/23 14:16:18;;;;;;;;;;;17.20;99.90;;;;;;8356764;28;19940;-71
2023/05/23 14:20:20;;;;;;;;;;;17.30;99.90;;;;;;8355180;28;19933;-71
2023/05/23 14:24:24;;;;;;;;;;;17.30;99.90;;;;;;8353222;28;20210;-71
2023/05/23 14:28:26;;;;;;;;;;;17.30;99.90;;;;;;8351372;28;20453;-71
2023/05/23 14:32:28;;;;;;;;;;;17.20;99.90;;;;;;8362155;28;20273;-71
2023/05/23 14:36:30;;;;;;;;;;;17.20;99.90;;;;;;8361327;28;19978;-71
2023/05/23 14:40:32;;;;;;;;;;;17.20;99.90;;;;;;8365801;28;19928;-71
2023/05/23 14:44:33;;;;;;;;;;;17.10;99.90;;;;;;8364541;28;19932;-71
2023/05/23 14:48:36;;;;;;;;;;;17.20;99.90;;;;;;8355965;28;19925;-71
2023/05/23 14:52:37;;;;;;;;;;;17.40;99.90;;;;;;8359666;28;19925;-72
2023/05/23 14:56:40;;;;;;;;;;;17.40;99.90;;;;;;8360746;28;20346;-71
2023/05/23 15:00:45;;;;;;;;;;;17.40;99.90;;;;;;8360473;28;20467;-71
2023/05/23 15:04:47;;;;;;;;;;;17.40;99.90;;;;;;8377391;28;19936;-71
2023/05/23 15:08:49;;;;;;;;;;;17.50;99.90;;;;;;8359219;28;20422;-71
2023/05/23 15:12:51;;;;;;;;;;;17.40;99.90;;;;;;8359535;28;20171;-71
2023/05/23 15:16:53;;;;;;;;;;;17.40;99.90;;;;;;8360295;28;19936;-71
2023/05/23 15:20:54;;;;;;;;;;;17.60;99.90;;;;;;8360049;28;20289;-71
2023/05/23 15:24:57;;;;;;;;;;;17.80;99.90;;;;;;8342930;28;19925;-71
2023/05/23 15:39:05;;;;;;;;;;;18.30;99.90;;;;;;8355355;28;19920;-71
2023/05/23 15:48:10;;;;;;;;;;;18.50;99.90;;;;;;8348907;28;20332;-70
2023/05/23 15:52:11;;;;;;;;;;;18.20;99.90;;;;;;8354161;28;19925;-71
2023/05/23 15:56:14;;;;;;;;;;;18.50;99.90;;;;;;8357616;28;19951;-70
2023/05/23 16:00:16;;;;;;;;;;;19.10;99.90;;;;;;8351237;28;19929;-70
2023/05/23 16:04:18;;;;;;;;;;;19.60;99.90;;;;;;8354384;28;20497;-70
2023/05/23 16:08:20;;;;;;;;;;;19.90;99.90;;;;;;8355413;28;19933;-70
2023/05/23 16:12:22;;;;;;;;;;;20.10;99.90;;;;;;8357830;28;19932;-70
2023/05/23 16:16:23;;;;;;;;;;;20.20;99.90;;;;;;8357204;28;19933;-70
2023/05/23 16:20:25;;;;;;;;;;;20.20;99.90;;;;;;8365156;28;19925;-70
2023/05/23 16:24:27;;;;;;;;;;;20.30;99.90;;;;;;8358725;28;19938;-70
2023/05/23 16:28:28;;;;;;;;;;;20.60;99.90;;;;;;8356105;28;19931;-71
2023/05/23 16:32:30;;;;;;;;;;;20.90;99.90;;;;;;8349980;28;20001;-70
2023/05/23 16:36:32;;;;;;;;;;;21.10;99.90;;;;;;8357473;28;19929;-71
2023/05/23 16:40:33;;;;;;;;;;;21.30;99.90;;;;;;8334780;28;19979;-71
2023/05/23 16:44:35;;;;;;;;;;;21.40;99.90;;;;;;8352656;28;19939;-70
2023/05/23 16:48:37;;;;;;;;;;;21.40;99.90;;;;;;8331870;28;19979;-71
2023/05/23 16:52:39;;;;;;;;;;;21.30;99.90;;;;;;8370136;28;20364;-70
2023/05/23 16:56:41;;;;;;;;;;;21.20;99.90;;;;;;8334604;28;19936;-71
2023/05/23 17:00:43;;;;;;;;;;;21.10;99.90;;;;;;8348164;28;19929;-71
2023/05/23 17:04:45;;;;;;;;;;;20.60;99.90;;;;;;8347597;28;19928;-71
2023/05/23 17:08:46;;;;;;;;;;;20.30;99.90;;;;;;8349337;28;19925;-71
2023/05/23 17:12:48;;;;;;;;;;;20.00;99.90;;;;;;8352721;28;19939;-71
2023/05/23 17:16:50;;;;;;;;;;;19.80;99.90;;;;;;8363190;28;20338;-71
2023/05/23 17:20:52;;;;;;;;;;;19.50;99.90;;;;;;8353016;28;19928;-70
2023/05/23 17:24:53;;;;;;;;;;;19.20;99.90;;;;;;8352607;28;19932;-71
2023/05/23 17:28:55;;;;;;;;;;;18.90;99.90;;;;;;8352301;28;19925;-70
2023/05/23 17:32:57;;;;;;;;;;;18.60;99.90;;;;;;8351640;28;20386;-70
2023/05/23 17:36:59;;;;;;;;;;;18.40;99.90;;;;;;8352192;28;19990;-71
2023/05/23 17:41:00;;;;;;;;;;;18.10;99.90;;;;;;8346085;28;19925;-70
2023/05/23 17:45:02;;;;;;;;;;;17.80;99.90;;;;;;8353911;28;20368;-71
2023/05/23 17:49:04;;;;;;;;;;;17.60;99.90;;;;;;8350547;28;19928;-71
2023/05/23 17:53:06;;;;;;;;;;;17.60;99.90;;;;;;8350105;28;19990;-71
2023/05/23 17:57:08;;;;;;;;;;;17.40;99.90;;;;;;8340860;28;19929;-71
2023/05/23 18:01:13;;;;;;;;;;;17.10;99.90;;;;;;8356468;28;19933;-71
2023/05/23 18:05:15;;;;;;;;;;;17.00;99.90;;;;;;8338650;28;20007;-71
2023/05/23 18:09:17;;;;;;;;;;;16.90;99.90;;;;;;8350190;28;21812;-70
2023/05/23 18:13:19;;;;;;;;;;;16.70;99.90;;;;;;8360228;28;19926;-71
2023/05/23 18:17:21;;;;;;;;;;;16.60;99.90;;;;;;8355530;28;19979;-71
2023/05/23 18:21:22;;;;;;;;;;;16.50;99.90;;;;;;8359363;28;19978;-71
2023/05/23 18:25:27;;;;;;;;;;;16.40;99.90;;;;;;8360720;28;19932;-71
2023/05/23 18:29:29;;;;;;;;;;;16.40;99.90;;;;;;8359762;28;19952;-71
2023/05/23 18:33:31;;;;;;;;;;;16.40;99.90;;;;;;8356889;28;19924;-71
2023/05/23 18:37:32;;;;;;;;;;;16.40;99.90;;;;;;8341561;28;19928;-72
2023/05/23 18:41:34;;;;;;;;;;;16.30;99.90;;;;;;8354968;28;19974;-71
2023/05/23 18:45:36;;;;;;;;;;;16.20;99.90;;;;;;8356717;28;19929;-71
2023/05/23 18:49:38;;;;;;;;;;;16.20;99.90;;;;;;8372465;28;20831;-71
2023/05/23 18:53:40;;;;;;;;;;;16.10;99.90;;;;;;8353319;28;19939;-73
2023/05/23 18:57:42;;;;;;;;;;;16.10;99.90;;;;;;8343408;28;20410;-71
2023/05/23 19:01:44;;;;;;;;;;;16.00;99.90;;;;;;8354959;28;19990;-71
2023/05/23 19:05:46;;;;;;;;;;;15.90;99.90;;;;;;8356627;28;19951;-71
2023/05/23 19:09:48;;;;;;;;;;;15.90;99.90;;;;;;8358699;28;19925;-71
2023/05/23 19:13:50;;;;;;;;;;;15.80;99.90;;;;;;8341792;28;19933;-71
2023/05/23 19:17:52;;;;;;;;;;;15.70;99.90;;;;;;8348475;28;19936;-71
2023/05/23 19:21:53;;;;;;;;;;;15.70;99.90;;;;;;8353357;28;20281;-71
2023/05/23 19:25:55;;;;;;;;;;;15.60;99.90;;;;;;8361533;28;20303;-71
2023/05/23 19:29:57;;;;;;;;;;;15.50;99.90;;;;;;8357206;28;19951;-71
2023/05/23 19:33:58;;;;;;;;;;;15.40;99.90;;;;;;8355223;28;20377;-71
2023/05/23 19:38:00;;;;;;;;;;;15.30;99.90;;;;;;8354683;28;20372;-71
2023/05/23 19:42:02;;;;;;;;;;;15.20;99.90;;;;;;8360862;28;19969;-71
2023/05/23 19:46:04;;;;;;;;;;;15.20;99.90;;;;;;8360498;28;20404;-71
2023/05/23 19:50:08;;;;;;;;;;;15.10;99.90;;;;;;8369457;28;20435;-72
2023/05/23 19:54:09;;;;;;;;;;;15.00;99.90;;;;;;8359050;28;19933;-72
2023/05/23 19:58:11;;;;;;;;;;;15.00;99.90;;;;;;8370046;28;19999;-71
2023/05/23 20:02:13;;;;;;;;;;;14.90;99.90;;;;;;8361356;28;19925;-72
2023/05/23 20:06:15;;;;;;;;;;;14.90;99.90;;;;;;8366491;28;19970;-72
2023/05/23 20:10:17;;;;;;;;;;;14.80;99.80;;;;;;8356408;28;19925;-71
2023/05/23 20:14:18;;;;;;;;;;;14.70;99.70;;;;;;8355395;28;19925;-71
2023/05/23 20:18:21;;;;;;;;;;;14.70;99.70;;;;;;8350427;28;19948;-72
2023/05/23 20:22:22;;;;;;;;;;;14.70;99.70;;;;;;8356152;28;19947;-71
2023/05/23 20:26:27;;;;;;;;;;;14.60;99.60;;;;;;8366495;28;19932;-72
2023/05/23 20:30:28;;;;;;;;;;;14.60;99.60;;;;;;8352685;28;19932;-72
2023/05/23 20:34:30;;;;;;;;;;;14.50;99.60;;;;;;8351483;28;19925;-71
2023/05/23 20:38:33;;;;;;;;;;;14.40;99.60;;;;;;8356817;28;19940;-72
2023/05/23 20:42:35;;;;;;;;;;;14.30;99.70;;;;;;8352259;28;19929;-72
2023/05/23 20:46:39;;;;;;;;;;;14.20;99.70;;;;;;8350355;28;19925;-72
2023/05/23 20:50:42;;;;;;;;;;;14.10;99.70;;;;;;8353735;28;19967;-72
2023/05/23 20:54:46;;;;;;;;;;;13.90;99.70;;;;;;8354866;28;20030;-72
2023/05/23 20:58:48;;;;;;;;;;;13.80;99.60;;;;;;8351652;28;19972;-72
2023/05/23 21:02:50;;;;;;;;;;;13.60;99.60;;;;;;8347792;28;19931;-72
2023/05/23 21:06:52;;;;;;;;;;;13.50;99.60;;;;;;8375239;28;19925;-72
2023/05/23 21:10:53;;;;;;;;;;;13.40;99.60;;;;;;8384956;28;19978;-72
2023/05/23 21:14:58;;;;;;;;;;;13.30;99.60;;;;;;8383935;28;19996;-72
2023/05/23 21:19:00;;;;;;;;;;;13.20;99.60;;;;;;8361740;28;20159;-72
2023/05/23 21:23:02;;;;;;;;;;;13.10;99.60;;;;;;8384269;28;20019;-72
2023/05/23 21:27:04;;;;;;;;;;;13.00;99.60;;;;;;8384884;28;20399;-72
2023/05/23 21:31:06;;;;;;;;;;;12.90;99.50;;;;;;8380479;28;19928;-72
2023/05/23 21:35:08;;;;;;;;;;;12.80;99.50;;;;;;8377029;28;19942;-72
2023/05/23 21:39:10;;;;;;;;;;;12.70;99.50;;;;;;8362147;28;19928;-72
2023/05/23 21:43:11;;;;;;;;;;;12.70;99.50;;;;;;8364093;28;19978;-73
2023/05/23 21:47:13;;;;;;;;;;;12.60;99.50;;;;;;8396890;28;19932;-72
2023/05/23 21:51:15;;;;;;;;;;;12.50;99.50;;;;;;8381183;28;19924;-72
2023/05/23 21:55:17;;;;;;;;;;;12.40;99.50;;;;;;8393155;28;19936;-72
2023/05/23 21:59:18;;;;;;;;;;;12.30;99.50;;;;;;8390529;28;19924;-72
2023/05/23 22:03:20;;;;;;;;;;;12.20;99.60;;;;;;8364736;28;19932;-72
2023/05/23 22:07:24;;;;;;;;;;;12.20;99.60;;;;;;8379844;28;19925;-72
2023/05/23 22:11:32;;;;;;;;;;;12.10;99.60;;;;;;8379678;28;19967;-72
2023/05/23 22:15:35;;;;;;;;;;;12.00;99.50;;;;;;8385396;28;20265;-72
2023/05/23 22:19:37;;;;;;;;;;;11.90;99.60;;;;;;8385990;28;19925;-72
2023/05/23 22:23:38;;;;;;;;;;;11.80;99.50;;;;;;8379822;28;20273;-72
2023/05/23 22:27:40;;;;;;;;;;;11.70;99.50;;;;;;8378588;28;20292;-72
2023/05/23 22:31:42;;;;;;;;;;;11.70;99.40;;;;;;8379925;28;19928;-72
2023/05/23 22:35:44;;;;;;;;;;;11.60;99.30;;;;;;8379605;28;19924;-72
2023/05/23 22:39:45;;;;;;;;;;;11.60;99.30;;;;;;8373407;28;19929;-72
2023/05/23 22:43:47;;;;;;;;;;;11.50;99.30;;;;;;8395711;28;19924;-73
2023/05/23 22:47:49;;;;;;;;;;;11.40;99.30;;;;;;8389168;28;20004;-72
2023/05/23 22:51:51;;;;;;;;;;;11.40;99.40;;;;;;8377624;28;19959;-72
2023/05/23 22:55:52;;;;;;;;;;;11.30;99.30;;;;;;8389225;28;19932;-72
2023/05/23 22:59:54;;;;;;;;;;;11.20;99.30;;;;;;8364260;28;19989;-72
2023/05/23 23:03:56;;;;;;;;;;;11.20;99.40;;;;;;8391258;28;19933;-72
2023/05/23 23:07:58;;;;;;;;;;;11.10;99.30;;;;;;8372882;28;20296;-72
2023/05/23 23:12:00;;;;;;;;;;;11.10;99.50;;;;;;8389725;28;19935;-72
2023/05/23 23:16:01;;;;;;;;;;;11.00;99.40;;;;;;8379274;28;19960;-72
2023/05/23 23:20:06;;;;;;;;;;;11.00;99.40;;;;;;8387560;28;19971;-72
2023/05/23 23:24:09;;;;;;;;;;;10.90;99.30;;;;;;8378885;28;19955;-72
2023/05/23 23:28:11;;;;;;;;;;;10.80;99.30;;;;;;8390555;28;20386;-72
2023/05/23 23:32:13;;;;;;;;;;;10.80;99.20;;;;;;8389576;28;19931;-73
2023/05/23 23:36:14;;;;;;;;;;;10.70;99.20;;;;;;8391394;28;20360;-72
2023/05/23 23:40:16;;;;;;;;;;;10.70;99.20;;;;;;8381825;28;20042;-72
2023/05/23 23:44:18;;;;;;;;;;;10.60;99.20;;;;;;8387070;28;19932;-72